Open Full Screen Window  High Contrast Mode
Wind Gusting 15 knots
10
April 25, 2015 7:16 AM CDT
Weather Information
Wind Direction
  090 °
Wind Speed
  10 kt (12 mph)
Wind Gust
  15 kt (17 mph)
Altimeter
29.85 in
Visibility
10 SM
Temperature
08° C
46° F
Dewpoint
00° C
32° F
Humidity
57%
Sky Condition
Overcast @ 5,000 ft
VFR

METAR KAXV 251216Z AUTO 09010G15KT 10SM OVC050 08/00 A2985 RMK AO2

*Background is not an actual portrayal of the airport.